sensor_id;sensor_type;location;lat;lon;timestamp;pressure;altitude;pressure_sealevel;temperature;humidity
69842;BME280;57138;51.326;-0.068;2023-04-26T00:02:16;100122.06;;;4.81;72.38
69842;BME280;57138;51.326;-0.068;2023-04-26T00:04:42;100122.38;;;4.78;72.48
69842;BME280;57138;51.326;-0.068;2023-04-26T00:07:08;100117.69;;;4.72;72.21
69842;BME280;57138;51.326;-0.068;2023-04-26T00:09:33;100120.69;;;4.77;72.62
69842;BME280;57138;51.326;-0.068;2023-04-26T00:11:59;100108.16;;;4.79;72.81
69842;BME280;57138;51.326;-0.068;2023-04-26T00:14:25;100105.13;;;4.74;72.43
69842;BME280;57138;51.326;-0.068;2023-04-26T00:16:50;100107.09;;;4.72;72.27
69842;BME280;57138;51.326;-0.068;2023-04-26T00:19:16;100105.44;;;4.71;72.63
69842;BME280;57138;51.326;-0.068;2023-04-26T00:21:42;100106.44;;;4.70;72.94
69842;BME280;57138;51.326;-0.068;2023-04-26T00:24:07;100102.09;;;4.68;72.74
69842;BME280;57138;51.326;-0.068;2023-04-26T00:26:33;100088.81;;;4.60;73.52
69842;BME280;57138;51.326;-0.068;2023-04-26T00:29:00;100085.84;;;4.63;73.24
69842;BME280;57138;51.326;-0.068;2023-04-26T00:31:26;100075.19;;;4.55;73.40
69842;BME280;57138;51.326;-0.068;2023-04-26T00:33:51;100080.50;;;4.55;73.30
69842;BME280;57138;51.326;-0.068;2023-04-26T00:36:17;100089.63;;;4.61;73.26
69842;BME280;57138;51.326;-0.068;2023-04-26T00:38:44;100079.34;;;4.58;73.27
69842;BME280;57138;51.326;-0.068;2023-04-26T00:41:10;100085.47;;;4.58;73.42
69842;BME280;57138;51.326;-0.068;2023-04-26T00:43:36;100077.16;;;4.53;73.80
69842;BME280;57138;51.326;-0.068;2023-04-26T00:46:02;100070.66;;;4.47;73.90
69842;BME280;57138;51.326;-0.068;2023-04-26T00:48:28;100073.81;;;4.51;74.12
69842;BME280;57138;51.326;-0.068;2023-04-26T00:50:54;100069.13;;;4.45;74.12
69842;BME280;57138;51.326;-0.068;2023-04-26T00:53:19;100077.44;;;4.50;73.78
69842;BME280;57138;51.326;-0.068;2023-04-26T00:55:46;100064.16;;;4.42;74.17
69842;BME280;57138;51.326;-0.068;2023-04-26T00:58:11;100066.50;;;4.45;74.24
69842;BME280;57138;51.326;-0.068;2023-04-26T01:00:37;100074.13;;;4.48;74.66
69842;BME280;57138;51.326;-0.068;2023-04-26T01:03:02;100064.97;;;4.42;74.21
69842;BME280;57138;51.326;-0.068;2023-04-26T01:05:28;100069.44;;;4.42;74.66
69842;BME280;57138;51.326;-0.068;2023-04-26T01:07:53;100080.56;;;4.45;74.81
69842;BME280;57138;51.326;-0.068;2023-04-26T01:10:19;100072.75;;;4.44;74.56
69842;BME280;57138;51.326;-0.068;2023-04-26T01:12:44;100072.16;;;4.50;74.85
69842;BME280;57138;51.326;-0.068;2023-04-26T01:15:10;100070.66;;;4.47;74.66
69842;BME280;57138;51.326;-0.068;2023-04-26T01:17:36;100074.13;;;4.48;74.94
69842;BME280;57138;51.326;-0.068;2023-04-26T01:20:03;100073.16;;;4.49;74.81
69842;BME280;57138;51.326;-0.068;2023-04-26T01:22:32;100067.72;;;4.50;75.10
69842;BME280;57138;51.326;-0.068;2023-04-26T01:24:58;100073.81;;;4.51;74.70
69842;BME280;57138;51.326;-0.068;2023-04-26T01:27:25;100079.13;;;4.51;74.70
69842;BME280;57138;51.326;-0.068;2023-04-26T01:29:51;100073.81;;;4.51;74.83
69842;BME280;57138;51.326;-0.068;2023-04-26T01:32:16;100070.50;;;4.49;74.91
69842;BME280;57138;51.326;-0.068;2023-04-26T01:34:42;100070.50;;;4.49;75.04
69842;BME280;57138;51.326;-0.068;2023-04-26T01:37:07;100061.34;;;4.43;75.08
69842;BME280;57138;51.326;-0.068;2023-04-26T01:39:33;100055.53;;;4.40;74.86
69842;BME280;57138;51.326;-0.068;2023-04-26T01:41:59;100050.25;;;4.40;74.88
69842;BME280;57138;51.326;-0.068;2023-04-26T01:44:24;100045.63;;;4.42;75.13
69842;BME280;57138;51.326;-0.068;2023-04-26T01:46:50;100031.00;;;4.38;75.70
69842;BME280;57138;51.326;-0.068;2023-04-26T01:49:15;100033.97;;;4.35;75.22
69842;BME280;57138;51.326;-0.068;2023-04-26T01:51:41;100033.81;;;4.36;75.23
69842;BME280;57138;51.326;-0.068;2023-04-26T01:54:06;100023.38;;;4.35;75.36
69842;BME280;57138;51.326;-0.068;2023-04-26T01:56:32;100023.38;;;4.35;74.79
69842;BME280;57138;51.326;-0.068;2023-04-26T01:58:57;100032.19;;;4.35;74.89
69842;BME280;57138;51.326;-0.068;2023-04-26T02:01:23;100032.31;;;4.34;75.41
69842;BME280;57138;51.326;-0.068;2023-04-26T02:03:49;100026.34;;;4.31;75.65
69842;BME280;57138;51.326;-0.068;2023-04-26T02:06:21;100023.16;;;4.28;75.66
69842;BME280;57138;51.326;-0.068;2023-04-26T02:08:46;100026.47;;;4.30;75.05
69842;BME280;57138;51.326;-0.068;2023-04-26T02:11:12;100033.97;;;4.35;75.20
69842;BME280;57138;51.326;-0.068;2023-04-26T02:13:37;100040.13;;;4.35;74.85
69842;BME280;57138;51.326;-0.068;2023-04-26T02:16:03;100032.31;;;4.34;75.62
69842;BME280;57138;51.326;-0.068;2023-04-26T02:18:29;100019.69;;;4.27;75.25
69842;BME280;57138;51.326;-0.068;2023-04-26T02:20:54;100027.41;;;4.39;75.56
69842;BME280;57138;51.326;-0.068;2023-04-26T02:23:20;100022.41;;;4.36;75.43
69842;BME280;57138;51.326;-0.068;2023-04-26T02:25:46;100036.00;;;4.41;75.40
69842;BME280;57138;51.326;-0.068;2023-04-26T02:28:13;100045.31;;;4.45;75.50
69842;BME280;57138;51.326;-0.068;2023-04-26T02:30:40;100044.34;;;4.46;75.03
69842;BME280;57138;51.326;-0.068;2023-04-26T02:33:07;100039.34;;;4.43;75.19
69842;BME280;57138;51.326;-0.068;2023-04-26T02:35:39;100041.84;;;4.44;75.65
69842;BME280;57138;51.326;-0.068;2023-04-26T02:38:13;100032.91;;;4.45;75.36
69842;BME280;57138;51.326;-0.068;2023-04-26T02:40:42;100025.13;;;4.44;75.48
69842;BME280;57138;51.326;-0.068;2023-04-26T02:43:09;100021.50;;;4.45;75.26
69842;BME280;57138;51.326;-0.068;2023-04-26T02:45:41;100027.00;;;4.52;75.65
69842;BME280;57138;51.326;-0.068;2023-04-26T02:48:11;100029.78;;;4.50;75.18
69842;BME280;57138;51.326;-0.068;2023-04-26T02:50:36;100032.44;;;4.50;75.17
69842;BME280;57138;51.326;-0.068;2023-04-26T02:53:01;100030.09;;;4.47;75.32
69842;BME280;57138;51.326;-0.068;2023-04-26T02:55:27;100040.38;;;4.50;75.53
69842;BME280;57138;51.326;-0.068;2023-04-26T02:57:53;100023.16;;;4.46;75.38
69842;BME280;57138;51.326;-0.068;2023-04-26T03:00:18;100022.84;;;4.49;75.55
69842;BME280;57138;51.326;-0.068;2023-04-26T03:02:44;100028.50;;;4.54;75.52
69842;BME280;57138;51.326;-0.068;2023-04-26T03:05:09;100022.25;;;4.55;76.01
69842;BME280;57138;51.326;-0.068;2023-04-26T03:07:45;100029.19;;;4.56;75.57
69842;BME280;57138;51.326;-0.068;2023-04-26T03:10:11;100031.66;;;4.58;75.69
69842;BME280;57138;51.326;-0.068;2023-04-26T03:12:37;100030.84;;;4.57;75.59
69842;BME280;57138;51.326;-0.068;2023-04-26T03:15:02;100031.97;;;4.55;75.76
69842;BME280;57138;51.326;-0.068;2023-04-26T03:17:28;100035.03;;;4.60;75.70
69842;BME280;57138;51.326;-0.068;2023-04-26T03:19:53;100026.53;;;4.56;75.73
69842;BME280;57138;51.326;-0.068;2023-04-26T03:22:19;100025.56;;;4.57;76.16
69842;BME280;57138;51.326;-0.068;2023-04-26T03:24:45;100027.91;;;4.60;76.26
69842;BME280;57138;51.326;-0.068;2023-04-26T03:27:12;100025.25;;;4.60;76.18
69842;BME280;57138;51.326;-0.068;2023-04-26T03:29:37;100025.41;;;4.59;76.78
69842;BME280;57138;51.326;-0.068;2023-04-26T03:32:03;100018.28;;;4.59;76.66
69842;BME280;57138;51.326;-0.068;2023-04-26T03:34:28;100007.69;;;4.59;76.47
69842;BME280;57138;51.326;-0.068;2023-04-26T03:36:53;100008.84;;;4.57;76.25
69842;BME280;57138;51.326;-0.068;2023-04-26T03:39:19;100009.66;;;4.57;76.25
69842;BME280;57138;51.326;-0.068;2023-04-26T03:41:45;100004.69;;;4.54;76.38
69842;BME280;57138;51.326;-0.068;2023-04-26T03:44:10;100012.31;;;4.57;76.56
69842;BME280;57138;51.326;-0.068;2023-04-26T03:46:36;100016.63;;;4.58;76.45
69842;BME280;57138;51.326;-0.068;2023-04-26T03:49:02;100013.59;;;4.53;76.96
69842;BME280;57138;51.326;-0.068;2023-04-26T03:51:27;100009.97;;;4.54;76.81
69842;BME280;57138;51.326;-0.068;2023-04-26T03:53:53;100018.28;;;4.59;76.69
69842;BME280;57138;51.326;-0.068;2023-04-26T03:56:18;100011.34;;;4.58;76.83
69842;BME280;57138;51.326;-0.068;2023-04-26T03:58:47;100006.66;;;4.52;77.10
69842;BME280;57138;51.326;-0.068;2023-04-26T04:01:13;99996.69;;;4.46;76.80
69842;BME280;57138;51.326;-0.068;2023-04-26T04:03:43;100009.97;;;4.54;77.35
69842;BME280;57138;51.326;-0.068;2023-04-26T04:06:18;100009.31;;;4.52;77.14
69842;BME280;57138;51.326;-0.068;2023-04-26T04:08:45;100002.34;;;4.51;77.12
69842;BME280;57138;51.326;-0.068;2023-04-26T04:11:13;100002.50;;;4.49;76.95
69842;BME280;57138;51.326;-0.068;2023-04-26T04:13:39;99995.69;;;4.47;77.05
69842;BME280;57138;51.326;-0.068;2023-04-26T04:16:04;99998.19;;;4.48;77.03
69842;BME280;57138;51.326;-0.068;2023-04-26T04:18:31;99992.22;;;4.46;76.85
69842;BME280;57138;51.326;-0.068;2023-04-26T04:20:56;99988.59;;;4.47;76.93
69842;BME280;57138;51.326;-0.068;2023-04-26T04:23:22;99985.25;;;4.45;76.92
69842;BME280;57138;51.326;-0.068;2023-04-26T04:25:47;99978.47;;;4.43;76.70
69842;BME280;57138;51.326;-0.068;2023-04-26T04:28:13;99981.13;;;4.43;76.67
69842;BME280;57138;51.326;-0.068;2023-04-26T04:30:40;99979.28;;;4.43;77.25
69842;BME280;57138;51.326;-0.068;2023-04-26T04:33:05;99977.63;;;4.42;77.32
69842;BME280;57138;51.326;-0.068;2023-04-26T04:35:31;99974.16;;;4.42;77.54
69842;BME280;57138;51.326;-0.068;2023-04-26T04:37:58;99976.63;;;4.43;77.23
69842;BME280;57138;51.326;-0.068;2023-04-26T04:40:28;99981.13;;;4.43;77.44
69842;BME280;57138;51.326;-0.068;2023-04-26T04:42:55;99979.44;;;4.42;77.99
69842;BME280;57138;51.326;-0.068;2023-04-26T04:45:20;99985.41;;;4.44;77.29
69842;BME280;57138;51.326;-0.068;2023-04-26T04:47:46;99989.72;;;4.45;77.46
69842;BME280;57138;51.326;-0.068;2023-04-26T04:50:11;99986.91;;;4.46;77.07
69842;BME280;57138;51.326;-0.068;2023-04-26T04:52:37;99979.44;;;4.42;77.71
69842;BME280;57138;51.326;-0.068;2023-04-26T04:55:03;99981.47;;;4.48;77.54
69842;BME280;57138;51.326;-0.068;2023-04-26T04:57:32;99981.47;;;4.48;77.04
69842;BME280;57138;51.326;-0.068;2023-04-26T04:59:57;99965.53;;;4.40;77.00
69842;BME280;57138;51.326;-0.068;2023-04-26T05:02:23;99973.53;;;4.48;76.86
69842;BME280;57138;51.326;-0.068;2023-04-26T05:04:49;99984.63;;;4.52;76.95
69842;BME280;57138;51.326;-0.068;2023-04-26T05:07:15;99983.81;;;4.51;nan
69842;BME280;57138;51.326;-0.068;2023-04-26T05:09:42;99973.53;;;4.48;76.70
69842;BME280;57138;51.326;-0.068;2023-04-26T05:12:07;99981.16;;;4.51;76.50
69842;BME280;57138;51.326;-0.068;2023-04-26T05:14:33;99971.38;;;4.52;76.23
69842;BME280;57138;51.326;-0.068;2023-04-26T05:16:58;99974.28;;;4.58;76.31
69842;BME280;57138;51.326;-0.068;2023-04-26T05:19:24;99974.44;;;4.57;76.37
69842;BME280;57138;51.326;-0.068;2023-04-26T05:21:49;99974.44;;;4.57;76.33
69842;BME280;57138;51.326;-0.068;2023-04-26T05:24:15;99970.25;;;4.54;76.15
69842;BME280;57138;51.326;-0.068;2023-04-26T05:26:40;99979.25;;;4.61;76.53
69842;BME280;57138;51.326;-0.068;2023-04-26T05:29:06;99984.72;;;4.60;76.40
69842;BME280;57138;51.326;-0.068;2023-04-26T05:31:31;99988.03;;;4.62;76.22
69842;BME280;57138;51.326;-0.068;2023-04-26T05:33:57;99982.56;;;4.63;76.08
69842;BME280;57138;51.326;-0.068;2023-04-26T05:36:22;99997.16;;;4.67;75.42
69842;BME280;57138;51.326;-0.068;2023-04-26T05:38:48;99999.81;;;4.67;75.07
69842;BME280;57138;51.326;-0.068;2023-04-26T05:41:13;100006.44;;;4.72;74.89
69842;BME280;57138;51.326;-0.068;2023-04-26T05:43:39;100004.81;;;4.71;75.19
69842;BME280;57138;51.326;-0.068;2023-04-26T05:46:04;100004.31;;;4.75;75.09
69842;BME280;57138;51.326;-0.068;2023-04-26T05:48:30;99998.53;;;4.80;75.03
69842;BME280;57138;51.326;-0.068;2023-04-26T05:50:55;99998.53;;;4.80;74.75
69842;BME280;57138;51.326;-0.068;2023-04-26T05:53:21;100009.38;;;4.86;74.46
69842;BME280;57138;51.326;-0.068;2023-04-26T05:55:47;99996.28;;;4.85;74.72
69842;BME280;57138;51.326;-0.068;2023-04-26T05:58:12;100005.25;;;4.92;73.60
69842;BME280;57138;51.326;-0.068;2023-04-26T06:00:37;99996.63;;;4.90;73.94
69842;BME280;57138;51.326;-0.068;2023-04-26T06:03:03;100014.38;;;4.98;74.26
69842;BME280;57138;51.326;-0.068;2023-04-26T06:05:32;100001.97;;;4.98;74.51
69842;BME280;57138;51.326;-0.068;2023-04-26T06:07:58;100018.41;;;5.02;73.52
69842;BME280;57138;51.326;-0.068;2023-04-26T06:10:23;100019.41;;;5.09;73.16
69842;BME280;57138;51.326;-0.068;2023-04-26T06:12:49;100018.13;;;5.13;73.14
69842;BME280;57138;51.326;-0.068;2023-04-26T06:15:14;100016.13;;;5.15;72.05
69842;BME280;57138;51.326;-0.068;2023-04-26T06:17:40;100018.00;;;5.23;72.35
69842;BME280;57138;51.326;-0.068;2023-04-26T06:20:07;100029.28;;;5.25;71.19
69842;BME280;57138;51.326;-0.068;2023-04-26T06:22:34;100015.88;;;5.27;70.84
69842;BME280;57138;51.326;-0.068;2023-04-26T06:24:59;100020.34;;;5.34;72.00
69842;BME280;57138;51.326;-0.068;2023-04-26T06:27:25;100025.72;;;5.43;70.45
69842;BME280;57138;51.326;-0.068;2023-04-26T06:29:50;100017.06;;;5.40;70.03
69842;BME280;57138;51.326;-0.068;2023-04-26T06:32:16;100019.06;;;5.47;69.87
69842;BME280;57138;51.326;-0.068;2023-04-26T06:34:42;100014.47;;;5.49;69.69
69842;BME280;57138;51.326;-0.068;2023-04-26T06:37:12;100014.97;;;5.52;68.01
69842;BME280;57138;51.326;-0.068;2023-04-26T06:39:38;100008.53;;;5.55;69.16
69842;BME280;57138;51.326;-0.068;2023-04-26T06:42:04;99998.56;;;5.57;68.12
69842;BME280;57138;51.326;-0.068;2023-04-26T06:44:30;100008.84;;;5.60;68.21
69842;BME280;57138;51.326;-0.068;2023-04-26T06:46:57;99999.06;;;5.61;68.13
69842;BME280;57138;51.326;-0.068;2023-04-26T06:49:23;100009.56;;;5.70;67.07
69842;BME280;57138;51.326;-0.068;2023-04-26T06:51:49;100011.88;;;5.73;68.00
69842;BME280;57138;51.326;-0.068;2023-04-26T06:54:17;100002.59;;;5.78;67.66
69842;BME280;57138;51.326;-0.068;2023-04-26T06:56:44;99987.31;;;5.71;67.05
69842;BME280;57138;51.326;-0.068;2023-04-26T06:59:11;100000.28;;;5.83;66.75
69842;BME280;57138;51.326;-0.068;2023-04-26T07:01:37;99991.34;;;5.84;66.03
69842;BME280;57138;51.326;-0.068;2023-04-26T07:04:04;99993.16;;;5.91;67.03
69842;BME280;57138;51.326;-0.068;2023-04-26T07:06:36;99992.84;;;5.94;66.51
69842;BME280;57138;51.326;-0.068;2023-04-26T07:09:02;100000.34;;;5.99;66.19
69842;BME280;57138;51.326;-0.068;2023-04-26T07:11:28;100001.69;;;6.11;66.91
69842;BME280;57138;51.326;-0.068;2023-04-26T07:13:53;100001.03;;;6.18;66.53
69842;BME280;57138;51.326;-0.068;2023-04-26T07:16:19;100002.53;;;6.20;66.53
69842;BME280;57138;51.326;-0.068;2023-04-26T07:18:45;100000.03;;;6.19;65.52
69842;BME280;57138;51.326;-0.068;2023-04-26T07:21:13;99979.47;;;6.13;65.54
69842;BME280;57138;51.326;-0.068;2023-04-26T07:23:38;100001.34;;;6.23;65.60
69842;BME280;57138;51.326;-0.068;2023-04-26T07:26:03;99993.72;;;6.20;65.59
69842;BME280;57138;51.326;-0.068;2023-04-26T07:28:30;99996.03;;;6.15;66.19
69842;BME280;57138;51.326;-0.068;2023-04-26T07:30:57;99992.56;;;6.14;65.78
69842;BME280;57138;51.326;-0.068;2023-04-26T07:33:26;99993.22;;;6.08;65.98
69842;BME280;57138;51.326;-0.068;2023-04-26T07:35:58;99985.75;;;6.03;65.73
69842;BME280;57138;51.326;-0.068;2023-04-26T07:38:30;99998.69;;;6.06;66.49
69842;BME280;57138;51.326;-0.068;2023-04-26T07:41:03;99988.25;;;6.05;66.56
69842;BME280;57138;51.326;-0.068;2023-04-26T07:43:29;99988.75;;;6.00;66.41
69842;BME280;57138;51.326;-0.068;2023-04-26T07:46:00;99989.41;;;6.02;66.37
69842;BME280;57138;51.326;-0.068;2023-04-26T07:48:26;99998.69;;;6.06;66.70
69842;BME280;57138;51.326;-0.068;2023-04-26T07:50:52;99998.88;;;6.05;66.94
69842;BME280;57138;51.326;-0.068;2023-04-26T07:53:18;100003.84;;;6.08;66.63
69842;BME280;57138;51.326;-0.068;2023-04-26T07:55:43;99993.56;;;6.05;66.81
69842;BME280;57138;51.326;-0.068;2023-04-26T07:58:08;100004.34;;;6.11;66.65
69842;BME280;57138;51.326;-0.068;2023-04-26T08:00:38;99989.56;;;6.09;66.90
69842;BME280;57138;51.326;-0.068;2023-04-26T08:03:04;100000.38;;;6.16;66.83
69842;BME280;57138;51.326;-0.068;2023-04-26T08:05:29;99983.09;;;6.11;67.19
69842;BME280;57138;51.326;-0.068;2023-04-26T08:07:55;99993.06;;;6.18;66.06
69842;BME280;57138;51.326;-0.068;2023-04-26T08:10:20;100000.69;;;6.21;66.31
69842;BME280;57138;51.326;-0.068;2023-04-26T08:12:46;100000.69;;;6.21;66.30
69842;BME280;57138;51.326;-0.068;2023-04-26T08:15:11;100003.69;;;6.26;66.30
69842;BME280;57138;51.326;-0.068;2023-04-26T08:17:36;99999.69;;;6.30;66.34
69842;BME280;57138;51.326;-0.068;2023-04-26T08:20:02;100004.69;;;6.33;65.71
69842;BME280;57138;51.326;-0.068;2023-04-26T08:22:30;99995.38;;;6.29;65.45
69842;BME280;57138;51.326;-0.068;2023-04-26T08:24:55;99990.38;;;6.34;65.83
69842;BME280;57138;51.326;-0.068;2023-04-26T08:27:21;99994.06;;;6.41;65.93
69842;BME280;57138;51.326;-0.068;2023-04-26T08:29:46;100002.34;;;6.46;66.11
69842;BME280;57138;51.326;-0.068;2023-04-26T08:32:12;99997.22;;;6.53;65.95
69842;BME280;57138;51.326;-0.068;2023-04-26T08:34:37;100005.50;;;6.58;65.55
69842;BME280;57138;51.326;-0.068;2023-04-26T08:37:02;99988.38;;;6.53;66.10
69842;BME280;57138;51.326;-0.068;2023-04-26T08:39:29;99998.69;;;6.56;65.27
69842;BME280;57138;51.326;-0.068;2023-04-26T08:41:59;99995.53;;;6.52;64.95
69842;BME280;57138;51.326;-0.068;2023-04-26T08:44:30;100007.50;;;6.56;65.19
69842;BME280;57138;51.326;-0.068;2023-04-26T08:49:53;99996.03;;;6.64;65.47
69842;BME280;57138;51.326;-0.068;2023-04-26T08:52:27;100002.47;;;6.70;64.90
69842;BME280;57138;51.326;-0.068;2023-04-26T08:54:53;100007.47;;;6.73;64.79
69842;BME280;57138;51.326;-0.068;2023-04-26T08:57:19;100005.81;;;6.72;64.89
69842;BME280;57138;51.326;-0.068;2023-04-26T08:59:45;100004.97;;;6.71;65.00
69842;BME280;57138;51.326;-0.068;2023-04-26T09:02:16;100007.97;;;6.76;65.24
69842;BME280;57138;51.326;-0.068;2023-04-26T09:04:44;100006.63;;;6.80;65.01
69842;BME280;57138;51.326;-0.068;2023-04-26T09:07:14;100000.63;;;6.87;65.31
69842;BME280;57138;51.326;-0.068;2023-04-26T09:09:47;99987.34;;;6.87;63.66
69842;BME280;57138;51.326;-0.068;2023-04-26T09:12:13;99999.91;;;7.01;63.28
69842;BME280;57138;51.326;-0.068;2023-04-26T09:14:41;99995.59;;;7.08;63.28
69842;BME280;57138;51.326;-0.068;2023-04-26T09:17:41;99993.88;;;7.24;63.33
69842;BME280;57138;51.326;-0.068;2023-04-26T09:20:27;99997.47;;;7.39;62.56
69842;BME280;57138;51.326;-0.068;2023-04-26T09:23:13;99983.31;;;7.47;62.53
69842;BME280;57138;51.326;-0.068;2023-04-26T09:25:40;100011.94;;;7.68;62.53
69842;BME280;57138;51.326;-0.068;2023-04-26T09:28:19;99996.94;;;7.75;60.66
69842;BME280;57138;51.326;-0.068;2023-04-26T09:30:45;100001.22;;;7.84;62.37
69842;BME280;57138;51.326;-0.068;2023-04-26T09:33:11;99999.88;;;7.88;61.11
69842;BME280;57138;51.326;-0.068;2023-04-26T09:35:38;99997.78;;;7.99;60.96
69842;BME280;57138;51.326;-0.068;2023-04-26T09:38:11;100004.00;;;8.14;60.52
69842;BME280;57138;51.326;-0.068;2023-04-26T09:40:41;99999.84;;;8.35;60.46
69842;BME280;57138;51.326;-0.068;2023-04-26T09:43:12;99995.28;;;8.67;59.79
69842;BME280;57138;51.326;-0.068;2023-04-26T09:48:27;100001.16;;;8.77;56.84
69842;BME280;57138;51.326;-0.068;2023-04-26T09:53:36;100002.66;;;8.94;58.93
69842;BME280;57138;51.326;-0.068;2023-04-26T09:56:10;99999.78;;;9.11;56.04
69842;BME280;57138;51.326;-0.068;2023-04-26T09:59:00;100001.34;;;9.20;57.03
69842;BME280;57138;51.326;-0.068;2023-04-26T10:01:27;99995.53;;;9.31;54.62
69842;BME280;57138;51.326;-0.068;2023-04-26T10:03:55;99995.09;;;9.43;55.91
69842;BME280;57138;51.326;-0.068;2023-04-26T10:06:22;99984.56;;;9.56;56.16
69842;BME280;57138;51.326;-0.068;2023-04-26T10:08:47;99991.06;;;9.68;54.16
69842;BME280;57138;51.326;-0.068;2023-04-26T10:11:13;99986.63;;;9.76;54.16
69842;BME280;57138;51.326;-0.068;2023-04-26T10:13:39;99986.63;;;9.76;52.15
69842;BME280;57138;51.326;-0.068;2023-04-26T10:16:06;99986.69;;;9.82;54.16
69842;BME280;57138;51.326;-0.068;2023-04-26T10:18:32;99993.91;;;9.82;52.47
69842;BME280;57138;51.326;-0.068;2023-04-26T10:21:01;99995.16;;;9.86;51.59
69842;BME280;57138;51.326;-0.068;2023-04-26T10:23:29;99996.16;;;9.63;46.92
69842;BME280;57138;51.326;-0.068;2023-04-26T10:25:55;99989.91;;;9.56;49.51
69842;BME280;57138;51.326;-0.068;2023-04-26T10:31:10;99985.44;;;9.27;51.03
69842;BME280;57138;51.326;-0.068;2023-04-26T10:33:36;99976.41;;;9.28;51.23
69842;BME280;57138;51.326;-0.068;2023-04-26T10:36:07;99981.00;;;9.34;50.21
69842;BME280;57138;51.326;-0.068;2023-04-26T10:38:34;99981.84;;;9.34;52.03
69842;BME280;57138;51.326;-0.068;2023-04-26T10:41:29;99982.13;;;9.40;49.88
69842;BME280;57138;51.326;-0.068;2023-04-26T10:43:56;99983.84;;;9.47;52.02
69842;BME280;57138;51.326;-0.068;2023-04-26T10:46:40;99968.03;;;9.46;49.39
69842;BME280;57138;51.326;-0.068;2023-04-26T10:49:17;99981.63;;;9.51;49.12
69842;BME280;57138;51.326;-0.068;2023-04-26T10:52:09;99986.13;;;9.50;48.92
69842;BME280;57138;51.326;-0.068;2023-04-26T10:54:58;99974.63;;;9.50;48.65
69842;BME280;57138;51.326;-0.068;2023-04-26T10:57:47;99977.56;;;9.55;49.21
69842;BME280;57138;51.326;-0.068;2023-04-26T11:08:17;99974.03;;;9.69;51.59
69842;BME280;57138;51.326;-0.068;2023-04-26T11:10:49;99972.78;;;9.87;50.46
69842;BME280;57138;51.326;-0.068;2023-04-26T11:13:16;99971.50;;;10.04;51.06
69842;BME280;57138;51.326;-0.068;2023-04-26T11:15:44;99962.19;;;10.22;50.95
69842;BME280;57138;51.326;-0.068;2023-04-26T11:18:10;99948.81;;;10.37;50.27
69842;BME280;57138;51.326;-0.068;2023-04-26T11:20:36;99965.00;;;10.57;49.00
69842;BME280;57138;51.326;-0.068;2023-04-26T11:23:01;99962.75;;;10.60;48.89
69842;BME280;57138;51.326;-0.068;2023-04-26T11:25:27;99975.13;;;10.68;48.83
69842;BME280;57138;51.326;-0.068;2023-04-26T11:28:00;99967.53;;;10.72;48.49
69842;BME280;57138;51.326;-0.068;2023-04-26T11:30:30;99965.72;;;10.72;48.67
69842;BME280;57138;51.326;-0.068;2023-04-26T11:33:00;99968.38;;;10.72;49.03
69842;BME280;57138;51.326;-0.068;2023-04-26T11:35:26;99952.22;;;10.52;47.85
69842;BME280;57138;51.326;-0.068;2023-04-26T11:37:56;99955.69;;;10.53;49.53
69842;BME280;57138;51.326;-0.068;2023-04-26T11:40:21;99959.81;;;10.49;49.27
69842;BME280;57138;51.326;-0.068;2023-04-26T11:42:47;99966.16;;;10.48;49.26
69842;BME280;57138;51.326;-0.068;2023-04-26T11:45:16;99954.19;;;10.43;49.22
69842;BME280;57138;51.326;-0.068;2023-04-26T11:47:43;99965.78;;;10.51;49.43
69842;BME280;57138;51.326;-0.068;2023-04-26T11:50:09;99961.19;;;10.45;48.46
69842;BME280;57138;51.326;-0.068;2023-04-26T11:52:36;99964.41;;;10.33;48.14
69842;BME280;57138;51.326;-0.068;2023-04-26T11:55:05;99963.47;;;10.26;48.15
69842;BME280;57138;51.326;-0.068;2023-04-26T11:57:32;99966.69;;;10.15;49.41
69842;BME280;57138;51.326;-0.068;2023-04-26T12:00:12;99976.47;;;10.07;47.74
69842;BME280;57138;51.326;-0.068;2023-04-26T12:02:44;99970.63;;;9.97;49.49
69842;BME280;57138;51.326;-0.068;2023-04-26T12:05:23;99967.97;;;9.97;49.38
69842;BME280;57138;51.326;-0.068;2023-04-26T12:07:50;99958.41;;;9.88;50.20
69842;BME280;57138;51.326;-0.068;2023-04-26T12:10:17;99964.44;;;9.97;49.51
69842;BME280;57138;51.326;-0.068;2023-04-26T12:12:48;99969.78;;;9.97;49.20
69842;BME280;57138;51.326;-0.068;2023-04-26T12:15:16;99972.25;;;9.98;50.21
69842;BME280;57138;51.326;-0.068;2023-04-26T12:18:10;99967.81;;;10.05;49.14
69842;BME280;57138;51.326;-0.068;2023-04-26T12:20:40;99962.97;;;10.16;50.14
69842;BME280;57138;51.326;-0.068;2023-04-26T12:23:08;99958.91;;;10.20;49.31
69842;BME280;57138;51.326;-0.068;2023-04-26T12:25:35;99964.75;;;10.30;49.54
69842;BME280;57138;51.326;-0.068;2023-04-26T12:28:02;99964.41;;;10.33;48.00
69842;BME280;57138;51.326;-0.068;2023-04-26T12:30:28;99951.03;;;10.33;48.27
69842;BME280;57138;51.326;-0.068;2023-04-26T12:32:53;99948.84;;;10.43;49.64
69842;BME280;57138;51.326;-0.068;2023-04-26T12:35:20;99952.25;;;10.59;48.43
69842;BME280;57138;51.326;-0.068;2023-04-26T12:37:45;99952.25;;;10.59;47.73
69842;BME280;57138;51.326;-0.068;2023-04-26T12:40:12;99953.44;;;10.56;47.56
69842;BME280;57138;51.326;-0.068;2023-04-26T12:42:38;99946.03;;;10.52;48.52
69842;BME280;57138;51.326;-0.068;2023-04-26T12:45:03;99949.34;;;10.54;47.74
69842;BME280;57138;51.326;-0.068;2023-04-26T12:47:30;99942.28;;;10.46;46.97
69842;BME280;57138;51.326;-0.068;2023-04-26T12:49:56;99954.19;;;10.43;47.54
69842;BME280;57138;51.326;-0.068;2023-04-26T12:52:23;99954.19;;;10.43;47.89
69842;BME280;57138;51.326;-0.068;2023-04-26T12:54:48;99955.84;;;10.45;48.75
69842;BME280;57138;51.326;-0.068;2023-04-26T12:57:14;99954.69;;;10.54;48.61
69842;BME280;57138;51.326;-0.068;2023-04-26T12:59:39;99953.53;;;10.63;49.14
69842;BME280;57138;51.326;-0.068;2023-04-26T13:02:05;99939.16;;;10.71;48.22
69842;BME280;57138;51.326;-0.068;2023-04-26T13:04:32;99945.81;;;10.82;47.95
69842;BME280;57138;51.326;-0.068;2023-04-26T13:06:58;99942.16;;;10.89;48.00
69842;BME280;57138;51.326;-0.068;2023-04-26T13:09:23;99935.56;;;10.92;47.59
69842;BME280;57138;51.326;-0.068;2023-04-26T13:11:48;99941.78;;;10.92;47.73
69842;BME280;57138;51.326;-0.068;2023-04-26T13:14:14;99924.84;;;10.85;47.48